Time;durP1;ratioP1;P1;durP2;ratioP2;P2;SDS_P1;SDS_P2;PMS_P1;PMS_P2;Temp;Humidity;BMP_temperature;BMP_pressure;BME280_temperature;BME280_humidity;BME280_pressure;Samples;Min_cycle;Max_cycle;Signal;HPM_P1;HPM_P2
2021/04/23 00:00:49;;;;;;;14.68;13.27;;;;;;;11.47;70.02;100970.28;5122615;27;20394;-80
2021/04/23 00:04:01;;;;;;;14.65;13.20;;;;;;;11.45;70.22;100966.88;5135547;27;20374;-79
2021/04/23 00:07:06;;;;;;;14.80;12.95;;;;;;;11.44;70.10;100960.63;5122429;27;20043;-78
2021/04/23 00:10:15;;;;;;;17.50;13.70;;;;;;;11.34;70.77;100961.50;5121974;27;20489;-80
2021/04/23 00:13:20;;;;;;;19.98;13.75;;;;;;;11.35;71.00;100966.78;5135096;27;20047;-80
2021/04/23 00:16:25;;;;;;;15.05;13.40;;;;;;;11.34;70.88;100959.69;5151609;27;20031;-81
2021/04/23 00:19:30;;;;;;;15.85;13.32;;;;;;;11.34;70.69;100959.69;5139027;27;20035;-79
2021/04/23 00:22:35;;;;;;;16.85;13.50;;;;;;;11.38;70.27;100971.03;5134719;27;20047;-81
2021/04/23 00:25:40;;;;;;;16.63;13.05;;;;;;;11.31;70.24;100961.75;5135017;27;20466;-77
2021/04/23 00:28:45;;;;;;;16.35;13.13;;;;;;;11.27;70.65;100963.84;5135686;27;20043;-80
2021/04/23 00:35:16;;;;;;;16.65;13.82;;;;;;;11.20;70.92;100956.41;5143866;27;20034;-80
2021/04/23 00:38:25;;;;;;;15.48;12.77;;;;;;;11.35;70.25;100965.91;5155298;27;20043;-82
2021/04/23 00:41:34;;;;;;;15.77;12.75;;;;;;;11.31;70.37;100961.75;5135149;28;20043;-81
2021/04/23 00:44:41;;;;;;;16.23;13.55;;;;;;;11.33;70.44;100962.50;5134724;28;20040;-81
2021/04/23 00:47:48;;;;;;;14.48;13.00;;;;;;;11.36;70.52;100972.97;5134655;28;20043;-78
2021/04/23 00:51:06;;;;;;;18.00;13.15;;;;;;;11.26;70.41;100958.59;5140655;27;20051;-82
2021/04/23 00:54:11;;;;;;;15.80;13.50;;;;;;;11.27;70.35;100971.03;5138226;27;20047;-79
2021/04/23 00:57:16;;;;;;;14.48;13.07;;;;;;;11.24;70.23;100968.59;5137154;28;20043;-80
2021/04/23 01:00:22;;;;;;;15.68;13.35;;;;;;;11.20;70.38;100969.84;5129534;28;20485;-78
2021/04/23 01:03:30;;;;;;;17.42;13.73;;;;;;;11.20;70.38;100972.53;5123886;28;20458;-78
2021/04/23 01:06:36;;;;;;;14.38;12.88;;;;;;;11.16;70.05;100971.06;5134436;27;20051;-81
2021/04/23 01:09:42;;;;;;;15.82;13.70;;;;;;;11.16;70.33;100971.91;5134506;28;20051;-81
2021/04/23 01:12:47;;;;;;;16.30;14.10;;;;;;;11.15;69.93;100972.03;5138413;27;20034;-76
2021/04/23 01:15:51;;;;;;;15.27;12.40;;;;;;;11.10;70.13;100970.59;5149647;27;20042;-82
2021/04/23 01:18:56;;;;;;;14.63;13.07;;;;;;;11.05;70.31;100972.78;5129367;27;20054;-78
2021/04/23 01:22:00;;;;;;;15.82;13.45;;;;;;;11.01;70.61;100971.31;5142685;27;20042;-81
2021/04/23 01:25:05;;;;;;;15.07;13.02;;;;;;;10.97;69.84;100975.22;5130602;27;20051;-80
2021/04/23 01:28:10;;;;;;;16.10;12.73;;;;;;;10.98;70.09;100974.25;5154970;27;20035;-82
2021/04/23 01:31:17;;;;;;;15.07;12.63;;;;;;;10.88;70.49;100975.97;5155299;27;20385;-77
2021/04/23 01:34:34;;;;;;;14.93;13.35;;;;;;;10.86;70.28;100982.44;5154998;27;20385;-81
2021/04/23 01:37:38;;;;;;;15.70;13.35;;;;;;;10.85;70.56;100986.06;5154966;27;20481;-82
2021/04/23 01:40:45;;;;;;;15.82;13.40;;;;;;;10.84;70.34;100993.28;5128321;27;20043;-81
2021/04/23 01:43:51;;;;;;;15.10;13.55;;;;;;;10.88;70.28;101001.97;5140006;27;20039;-78
2021/04/23 01:46:56;;;;;;;15.85;13.80;;;;;;;10.80;70.73;100986.44;5158294;27;20035;-82
2021/04/23 01:50:02;;;;;;;15.52;13.93;;;;;;;10.87;70.19;101003.78;5158455;27;20050;-80
2021/04/23 01:53:07;;;;;;;16.50;14.18;;;;;;;10.78;70.78;100995.59;5137702;27;20043;-79
2021/04/23 01:56:12;;;;;;;16.25;14.25;;;;;;;10.77;70.59;101002.78;5156175;27;20047;-81
2021/04/23 01:59:16;;;;;;;14.70;13.20;;;;;;;10.75;70.58;101009.25;5157196;27;20043;-80
2021/04/23 02:02:21;;;;;;;14.82;13.15;;;;;;;10.69;70.62;101009.75;5128083;27;20042;-76
2021/04/23 02:05:26;;;;;;;15.52;13.90;;;;;;;10.61;71.35;101007.66;5139875;27;20050;-80
2021/04/23 02:08:31;;;;;;;16.70;13.73;;;;;;;10.55;71.56;101009.94;5124186;27;20043;-82
2021/04/23 02:11:39;;;;;;;18.90;14.45;;;;;;;10.52;71.43;101010.19;5124241;27;20039;-79
2021/04/23 02:14:43;;;;;;;17.48;14.60;;;;;;;10.44;72.05;101017.00;5137722;27;20043;-76
2021/04/23 02:17:48;;;;;;;15.27;13.68;;;;;;;10.42;72.22;101013.56;5153564;27;20476;-77
2021/04/23 02:20:52;;;;;;;17.95;15.50;;;;;;;10.48;72.21;101020.31;5157930;27;20051;-76
2021/04/23 02:23:57;;;;;;;16.23;14.63;;;;;;;10.46;72.21;101022.25;5145247;27;20481;-79
2021/04/23 02:27:02;;;;;;;17.08;14.57;;;;;;;10.44;72.14;101017.00;5137266;27;20047;-78
2021/04/23 02:30:19;;;;;;;17.77;15.00;;;;;;;10.47;72.49;101018.56;5136623;27;20051;-81
2021/04/23 02:33:24;;;;;;;19.95;14.05;;;;;;;10.55;72.10;101021.53;5137076;27;20035;-82
2021/04/23 02:36:29;;;;;;;16.55;14.85;;;;;;;10.58;72.36;101028.50;5136402;27;20038;-78
2021/04/23 02:39:37;;;;;;;15.68;14.07;;;;;;;10.64;71.93;101036.94;5145749;27;20039;-78
2021/04/23 02:42:46;;;;;;;17.80;15.52;;;;;;;10.66;72.16;101032.31;5143517;27;20171;-79
2021/04/23 02:45:52;;;;;;;19.35;13.63;;;;;;;10.66;71.62;101029.63;5133653;27;20043;-78
2021/04/23 02:48:56;;;;;;;17.33;14.75;;;;;;;10.66;72.05;101037.69;5148771;27;20038;-78
2021/04/23 02:52:04;;;;;;;17.45;15.40;;;;;;;10.58;71.74;101040.09;5136715;27;20386;-83
2021/04/23 02:55:10;;;;;;;19.23;14.63;;;;;;;10.63;71.75;101037.91;5145013;27;20043;-83
2021/04/23 02:58:19;;;;;;;16.77;15.07;;;;;;;10.62;71.55;101038.03;5157687;27;20039;-78
2021/04/23 03:01:28;;;;;;;18.50;14.90;;;;;;;10.66;71.72;101043.06;5157600;27;20485;-78
2021/04/23 03:04:33;;;;;;;17.38;15.57;;;;;;;10.59;71.63;101036.41;5123873;27;20039;-78
2021/04/23 03:07:38;;;;;;;18.17;13.63;;;;;;;10.58;71.14;101040.09;5134295;27;20051;-79
2021/04/23 03:10:55;;;;;;;18.70;13.48;;;;;;;10.61;71.22;101045.25;5144538;27;20050;-78
2021/04/23 03:14:00;;;;;;;16.27;14.57;;;;;;;10.54;70.93;101043.16;5157645;27;20039;-81
2021/04/23 03:17:05;;;;;;;15.90;13.23;;;;;;;10.52;70.92;101042.41;5136413;27;20047;-79
2021/04/23 03:20:12;;;;;;;17.52;14.70;;;;;;;10.45;70.65;101045.56;5137928;27;20043;-79
2021/04/23 03:23:17;;;;;;;16.08;14.38;;;;;;;10.45;71.19;101045.56;5135734;27;20031;-79
2021/04/23 03:26:24;;;;;;;15.63;14.02;;;;;;;10.40;71.01;101049.56;5137068;27;20417;-79
2021/04/23 03:29:29;;;;;;;16.45;14.77;;;;;;;10.38;71.26;101055.03;5135199;27;20039;-79
2021/04/23 03:32:33;;;;;;;15.80;14.20;;;;;;;10.33;71.35;101048.31;5122651;27;20474;-81
2021/04/23 03:35:40;;;;;;;17.23;14.98;;;;;;;10.16;71.31;101048.72;5135469;27;20039;-82
2021/04/23 03:38:46;;;;;;;15.70;13.23;;;;;;;10.04;71.87;101049.59;5155057;27;20039;-83
2021/04/23 03:41:51;;;;;;;16.23;14.48;;;;;;;9.97;71.81;101059.09;5144070;27;20046;-79
2021/04/23 03:44:56;;;;;;;15.15;13.55;;;;;;;9.89;72.12;101056.09;5156600;27;20057;-81
2021/04/23 03:48:01;;;;;;;15.98;14.38;;;;;;;9.84;72.61;101053.78;5123234;27;20386;-84
2021/04/23 03:51:07;;;;;;;17.60;15.38;;;;;;;9.75;72.94;101055.28;5122923;27;20057;-77
2021/04/23 03:54:12;;;;;;;16.13;14.20;;;;;;;9.70;73.02;101049.41;5137309;27;20054;-78
2021/04/23 03:57:16;;;;;;;15.18;13.63;;;;;;;9.79;73.17;101064.84;5138151;27;20070;-83
2021/04/23 04:00:37;;;;;;;15.13;13.60;;;;;;;9.75;72.72;101059.81;5135461;27;20062;-83
2021/04/23 04:03:43;;;;;;;18.08;14.63;;;;;;;9.67;73.10;101060.38;5134853;27;20046;-78
2021/04/23 04:06:47;;;;;;;17.23;14.13;;;;;;;9.70;72.99;101053.94;5121278;27;20501;-79
2021/04/23 04:09:52;;;;;;;16.80;15.02;;;;;;;9.66;73.42;101055.09;5123458;27;20061;-78
2021/04/23 04:12:57;;;;;;;16.67;14.68;;;;;;;9.63;73.49;101058.88;5137942;27;20042;-79
2021/04/23 04:16:03;;;;;;;18.20;13.85;;;;;;;9.66;73.47;101066.69;5127435;27;20346;-79
2021/04/23 04:19:08;;;;;;;15.68;14.02;;;;;;;9.72;72.92;101068.06;5134879;27;20389;-83
2021/04/23 04:22:12;;;;;;;17.95;14.43;;;;;;;9.68;72.84;101080.84;5149724;27;20499;-83
2021/04/23 04:25:24;;;;;;;18.27;14.80;;;;;;;9.64;73.21;101081.16;5142700;27;20038;-79
2021/04/23 04:28:30;;;;;;;17.60;14.38;;;;;;;9.68;73.22;101086.19;5152616;27;20046;-82
2021/04/23 04:31:34;;;;;;;18.55;14.90;;;;;;;9.68;73.23;101083.50;5154742;27;20420;-82
2021/04/23 04:34:39;;;;;;;15.88;13.77;;;;;;;9.72;73.01;101087.69;5150075;27;20041;-80
2021/04/23 04:37:44;;;;;;;14.65;13.15;;;;;;;9.81;72.58;101091.53;5154116;27;20062;-82
2021/04/23 04:40:51;;;;;;;16.58;14.80;;;;;;;9.80;72.36;101089.81;5134488;28;20050;-82
2021/04/23 04:43:56;;;;;;;15.25;13.70;;;;;;;9.80;72.73;101100.56;5134476;28;20054;-83
2021/04/23 04:47:02;;;;;;;15.18;13.38;;;;;;;9.82;72.10;101094.13;5134541;28;20050;-82
2021/04/23 04:50:12;;;;;;;16.25;13.90;;;;;;;9.93;71.67;101098.66;5121410;28;20050;-79
2021/04/23 04:53:17;;;;;;;16.42;12.55;;;;;;;10.08;71.05;101102.91;5134419;27;20042;-80
2021/04/23 04:56:22;;;;;;;19.83;12.88;;;;;;;10.12;71.10;101098.22;5146818;27;20397;-79
2021/04/23 04:59:26;;;;;;;17.15;13.48;;;;;;;10.27;70.66;101107.81;5153347;27;20043;-83
2021/04/23 05:02:30;;;;;;;28.42;23.85;;;;;;;10.42;69.89;101110.19;5154918;27;20131;-82
2021/04/23 05:05:35;;;;;;;68.10;51.45;;;;;;;10.64;69.13;101114.78;5122036;28;20047;-79
2021/04/23 05:08:39;;;;;;;18.13;16.20;;;;;;;10.91;68.07;101118.03;5133813;28;20051;-78
2021/04/23 05:11:43;;;;;;;15.30;12.05;;;;;;;11.16;67.11;101119.69;5121914;28;20397;-78
2021/04/23 05:14:48;;;;;;;13.40;11.98;;;;;;;11.51;66.58;101116.91;5134194;28;20035;-78
2021/04/23 05:17:52;;;;;;;14.63;11.63;;;;;;;11.85;64.90;101120.50;5128810;27;20047;-83
2021/04/23 05:20:57;;;;;;;13.23;11.65;;;;;;;12.31;63.47;101124.69;5154694;27;20043;-83
2021/04/23 05:24:01;;;;;;;12.32;11.10;;;;;;;12.79;61.92;101127.78;5145985;27;20042;-79
2021/04/23 05:27:06;;;;;;;13.60;10.90;;;;;;;13.06;60.64;101129.97;5137978;27;20043;-77
2021/04/23 05:35:17;;;;;;;11.18;10.07;;;;;;;14.42;56.76;101138.56;5152915;27;20043;-83
2021/04/23 05:38:21;;;;;;;11.85;10.02;;;;;;;14.98;54.60;101140.44;5145041;27;20030;-80
2021/04/23 05:41:26;;;;;;;11.50;9.43;;;;;;;15.48;53.05;101135.63;5145782;27;20039;-79
2021/04/23 05:44:30;;;;;;;16.40;10.18;;;;;;;15.77;52.48;101138.25;5146451;27;20050;-77
2021/04/23 05:47:36;;;;;;;13.60;10.15;;;;;;;16.26;50.79;101140.56;5141258;27;20055;-79
2021/04/23 05:50:40;;;;;;;10.63;8.77;;;;;;;16.43;50.68;101136.16;5124865;27;20051;-84
2021/04/23 05:53:45;;;;;;;14.57;9.55;;;;;;;17.59;48.12;101136.00;5142642;27;20050;-78
2021/04/23 05:56:49;;;;;;;15.07;9.57;;;;;;;18.55;45.06;101139.16;5154330;27;20050;-76
2021/04/23 05:59:53;;;;;;;12.32;9.40;;;;;;;17.49;48.20;101142.38;5133586;27;20065;-77
2021/04/23 06:03:00;;;;;;;15.60;9.82;;;;;;;17.34;49.46;101146.69;5140690;27;20039;-78
2021/04/23 06:06:04;;;;;;;13.88;10.68;;;;;;;18.63;45.76;101155.50;5143216;27;20046;-77
2021/04/23 06:09:09;;;;;;;11.93;10.05;;;;;;;19.49;44.05;101153.16;5143506;27;20039;-81
2021/04/23 06:12:13;;;;;;;17.63;10.23;;;;;;;19.31;43.97;101156.03;5150008;27;20039;-81
2021/04/23 06:15:18;;;;;;;12.98;10.95;;;;;;;19.96;43.36;101156.78;5140002;27;20031;-80
2021/04/23 06:18:23;;;;;;;11.77;10.43;;;;;;;21.66;40.31;101152.91;5132618;27;20039;-78
2021/04/23 06:21:29;;;;;;;14.35;11.65;;;;;;;22.31;39.42;101159.34;5144638;27;20354;-79
2021/04/23 06:24:33;;;;;;;13.55;11.88;;;;;;;24.77;34.57;101148.06;5137100;27;20429;-80
2021/04/23 06:27:39;;;;;;;17.42;10.88;;;;;;;25.46;32.97;101151.31;5137062;27;20050;-77
2021/04/23 06:30:44;;;;;;;14.40;12.43;;;;;;;24.52;35.08;101161.47;5135857;27;20051;-80
2021/04/23 06:33:52;;;;;;;17.08;11.82;;;;;;;23.43;36.54;101166.88;5125469;27;20046;-77
2021/04/23 06:36:57;;;;;;;21.27;14.30;;;;;;;21.23;41.42;101168.19;5150129;27;20130;-77
2021/04/23 06:40:03;;;;;;;32.33;28.85;;;;;;;21.78;40.88;101160.47;5136697;27;20050;-77
2021/04/23 06:43:07;;;;;;;15.57;13.75;;;;;;;20.65;42.70;101164.13;5138728;27;20046;-76
2021/04/23 06:46:12;;;;;;;14.32;12.93;;;;;;;20.52;42.83;101169.31;5130297;27;20043;-78
2021/04/23 06:49:18;;;;;;;14.15;12.75;;;;;;;21.39;41.54;101168.03;5151837;27;20039;-82
2021/04/23 06:52:22;;;;;;;15.73;12.38;;;;;;;23.88;36.99;101155.41;5148974;27;20039;-78
2021/04/23 06:55:26;;;;;;;14.40;12.55;;;;;;;28.78;29.37;101155.81;5136608;27;20043;-82
2021/04/23 06:58:30;;;;;;;19.27;13.20;;;;;;;31.26;25.83;101157.69;5135469;27;20039;-79
2021/04/23 07:01:35;;;;;;;14.95;13.45;;;;;;;32.84;22.69;101157.81;5137497;27;20414;-78
2021/04/23 07:04:39;;;;;;;15.00;11.68;;;;;;;33.87;21.88;101162.13;5141813;27;20046;-79
2021/04/23 07:07:45;;;;;;;16.08;12.52;;;;;;;32.96;23.20;101158.47;5138386;27;20059;-79
2021/04/23 07:10:49;;;;;;;13.50;12.20;;;;;;;33.85;22.95;101162.38;5135619;27;20473;-81
2021/04/23 07:13:53;;;;;;;13.90;12.35;;;;;;;34.36;22.00;101171.06;5123474;27;20040;-80
2021/04/23 07:16:57;;;;;;;16.67;13.02;;;;;;;35.64;21.54;101171.97;5135937;27;20035;-79
2021/04/23 07:20:02;;;;;;;13.85;12.55;;;;;;;35.22;21.29;101169.41;5144091;27;20055;-80
2021/04/23 07:23:06;;;;;;;16.77;12.30;;;;;;;35.56;21.65;101175.31;5150553;27;20047;-79
2021/04/23 07:26:11;;;;;;;14.90;12.30;;;;;;;36.18;20.51;101175.81;5148501;27;20043;-80
2021/04/23 07:29:15;;;;;;;12.75;11.25;;;;;;;36.22;20.54;101179.69;5123662;27;20047;-79
2021/04/23 07:32:20;;;;;;;13.38;11.93;;;;;;;35.96;20.63;101186.44;5136170;27;20043;-78
2021/04/23 07:35:26;;;;;;;14.82;12.10;;;;;;;35.52;20.40;101177.84;5135783;27;20043;-78
2021/04/23 07:38:31;;;;;;;13.75;11.98;;;;;;;36.22;20.26;101188.09;5152020;27;20043;-79
2021/04/23 07:41:36;;;;;;;19.75;11.95;;;;;;;38.66;18.09;101178.38;5156100;27;20035;-79
2021/04/23 07:44:41;;;;;;;12.52;11.32;;;;;;;38.44;18.00;101182.88;5143494;27;20039;-82
2021/04/23 07:47:46;;;;;;;12.63;11.48;;;;;;;38.66;18.04;101192.44;5156460;27;20039;-82
2021/04/23 07:50:50;;;;;;;13.00;11.70;;;;;;;38.58;18.35;101187.47;5156417;27;20039;-79
2021/04/23 07:53:55;;;;;;;14.10;10.10;;;;;;;38.03;18.59;101188.94;5156298;27;20481;-79
2021/04/23 07:56:59;;;;;;;11.52;10.32;;;;;;;38.07;19.13;101190.03;5149877;27;20047;-81
2021/04/23 08:00:06;;;;;;;13.25;11.50;;;;;;;36.77;20.23;101191.81;5135438;27;20049;-80
2021/04/23 08:03:17;;;;;;;13.27;11.65;;;;;;;36.31;20.23;101197.59;5122651;27;20039;-81
2021/04/23 08:06:21;;;;;;;17.70;10.27;;;;;;;36.70;20.36;101199.69;5122789;27;20039;-79
2021/04/23 08:09:26;;;;;;;14.07;10.88;;;;;;;35.79;20.83;101202.69;5110738;27;20043;-80
2021/04/23 08:12:31;;;;;;;17.40;11.93;;;;;;;36.53;20.65;101186.91;5134727;27;20035;-77
2021/04/23 08:15:37;;;;;;;15.63;14.13;;;;;;;36.20;21.09;101201.50;5121914;27;20050;-81
2021/04/23 08:18:41;;;;;;;40.90;37.00;;;;;;;35.25;21.86;101206.00;5134943;27;20047;-81
2021/04/23 08:21:46;;;;;;;14.75;13.30;;;;;;;35.56;21.53;101203.25;5135506;27;20381;-79
2021/04/23 08:24:50;;;;;;;19.83;14.88;;;;;;;34.66;22.69;101204.69;5134990;27;20043;-78
2021/04/23 08:27:55;;;;;;;16.55;14.85;;;;;;;33.94;23.96;101202.56;5134394;27;20047;-78
2021/04/23 08:31:00;;;;;;;16.55;14.95;;;;;;;33.66;24.08;101204.84;5134629;27;20051;-78
2021/04/23 08:34:05;;;;;;;17.67;15.15;;;;;;;32.78;25.27;101201.44;5133532;27;20046;-78
2021/04/23 08:37:09;;;;;;;16.77;15.07;;;;;;;31.78;26.48;101211.91;5135384;27;20478;-77
2021/04/23 08:40:16;;;;;;;22.55;16.02;;;;;;;31.68;26.73;101208.97;5135132;28;20051;-81
2021/04/23 08:43:22;;;;;;;17.55;15.93;;;;;;;28.97;29.89;101205.31;5135049;28;20043;-78
2021/04/23 08:46:28;;;;;;;18.52;16.83;;;;;;;26.81;32.30;101209.25;5134139;28;20039;-77
2021/04/23 08:49:35;;;;;;;20.27;18.40;;;;;;;24.16;38.39;101218.50;5128783;27;20405;-80
2021/04/23 08:52:42;;;;;;;19.73;17.88;;;;;;;22.99;40.08;101223.75;5134495;27;20047;-80
2021/04/23 08:55:47;;;;;;;20.83;18.83;;;;;;;22.17;41.25;101227.75;5138823;27;20127;-78
2021/04/23 08:58:51;;;;;;;22.98;20.58;;;;;;;21.36;44.13;101223.88;5138848;27;20035;-79
2021/04/23 09:01:55;;;;;;;21.73;19.60;;;;;;;21.17;43.20;101218.91;5138072;27;20047;-77
2021/04/23 09:05:01;;;;;;;21.58;19.38;;;;;;;20.55;44.46;101226.25;5125624;27;20039;-78
2021/04/23 09:08:09;;;;;;;22.52;20.08;;;;;;;20.78;45.05;101223.59;5125147;27;20043;-78
2021/04/23 09:11:18;;;;;;;23.23;20.73;;;;;;;20.42;45.54;101233.28;5126075;27;20043;-80
2021/04/23 09:14:25;;;;;;;19.40;17.20;;;;;;;20.42;45.65;101230.56;5138831;27;20039;-77
2021/04/23 09:17:30;;;;;;;16.35;14.65;;;;;;;20.37;44.16;101235.72;5138860;27;20043;-78
2021/04/23 09:20:37;;;;;;;17.33;14.55;;;;;;;20.14;43.59;101227.44;5139496;27;20048;-78
2021/04/23 09:23:51;;;;;;;15.40;13.68;;;;;;;19.60;45.17;101226.34;5137936;27;20035;-80
2021/04/23 09:27:13;;;;;;;13.50;11.13;;;;;;;19.38;44.71;101233.31;5126619;27;20040;-77
2021/04/23 09:30:18;;;;;;;13.45;10.07;;;;;;;19.37;45.54;101217.16;5137476;27;20457;-76
2021/04/23 09:33:25;;;;;;;9.25;8.00;;;;;;;19.17;43.32;101229.34;5124959;27;20039;-76
2021/04/23 09:36:44;;;;;;;9.10;6.10;;;;;;;19.18;42.08;101228.34;5137518;27;20038;-77
2021/04/23 09:39:51;;;;;;;9.57;5.85;;;;;;;19.35;42.38;101224.63;5140158;27;20062;-77
2021/04/23 09:43:06;;;;;;;9.73;7.05;;;;;;;19.34;41.70;101231.06;5142069;27;20050;-76
2021/04/23 09:46:10;;;;;;;8.88;6.45;;;;;;;19.15;42.67;101225.97;5147160;27;20042;-76
2021/04/23 09:49:16;;;;;;;9.77;6.20;;;;;;;19.46;42.25;101219.69;5139696;27;20045;-76
2021/04/23 09:52:22;;;;;;;16.50;6.32;;;;;;;19.58;41.06;101222.09;5130589;27;20531;-72
2021/04/23 09:55:30;;;;;;;8.10;5.57;;;;;;;19.46;41.46;101219.69;5136803;27;20054;-77
2021/04/23 09:58:36;;;;;;;10.13;5.25;;;;;;;19.49;40.23;101218.50;5138561;27;20054;-78
2021/04/23 10:01:51;;;;;;;8.85;5.55;;;;;;;19.36;42.48;101213.56;5125802;27;20050;-79
2021/04/23 10:04:57;;;;;;;6.30;5.20;;;;;;;19.76;41.75;101209.97;5123506;27;20512;-78
2021/04/23 10:08:05;;;;;;;9.38;6.07;;;;;;;19.71;41.22;101212.34;5136752;27;20054;-75
2021/04/23 10:11:10;;;;;;;13.02;6.80;;;;;;;19.68;41.23;101209.13;5136999;27;20417;-76
2021/04/23 10:14:16;;;;;;;11.27;7.47;;;;;;;19.57;41.98;101207.63;5137319;27;20046;-77
2021/04/23 10:17:21;;;;;;;11.07;7.55;;;;;;;19.39;42.20;101201.50;5139393;27;20046;-76
2021/04/23 10:20:28;;;;;;;8.27;6.65;;;;;;;19.48;42.08;101206.75;5124477;27;20142;-78
2021/04/23 10:23:32;;;;;;;11.98;6.40;;;;;;;19.20;41.88;101197.22;5137842;27;20054;-80
2021/04/23 10:26:37;;;;;;;9.43;6.45;;;;;;;19.23;41.77;101202.31;5137704;27;20050;-77
2021/04/23 10:29:45;;;;;;;7.95;5.88;;;;;;;19.40;42.75;101203.22;5126865;27;20500;-78
2021/04/23 10:32:52;;;;;;;10.13;6.70;;;;;;;19.53;41.72;101194.53;5138822;27;20050;-77
2021/04/23 10:35:58;;;;;;;9.07;6.72;;;;;;;19.25;41.73;101196.72;5137145;27;20500;-77
2021/04/23 10:39:03;;;;;;;8.63;6.85;;;;;;;19.04;43.06;101193.63;5136368;27;20042;-77
2021/04/23 10:42:39;;;;;;;8.73;5.13;;;;;;;19.17;41.64;101202.13;5136970;27;20046;-80
2021/04/23 10:46:00;;;;;;;7.93;5.90;;;;;;;19.39;43.15;101202.34;5112702;27;20054;-78
2021/04/23 10:49:07;;;;;;;8.93;5.70;;;;;;;19.39;40.99;101188.72;5136734;27;20043;-79
2021/04/23 10:52:11;;;;;;;6.90;5.82;;;;;;;19.56;40.97;101192.28;5124057;27;20054;-78
2021/04/23 10:55:16;;;;;;;9.48;4.68;;;;;;;19.67;41.68;101188.38;5124522;27;20046;-81
2021/04/23 10:58:29;;;;;;;8.85;5.35;;;;;;;19.63;41.82;101190.56;5112649;27;20066;-76
2021/04/23 11:01:40;;;;;;;6.32;5.68;;;;;;;19.54;41.58;101186.16;5124211;27;20058;-80
2021/04/23 11:05:00;;;;;;;9.60;5.07;;;;;;;19.41;39.91;101192.13;5127651;27;20508;-76
2021/04/23 11:08:08;;;;;;;;;;;;;;;19.34;39.37;101190.22;5123460;27;20046;-76
2021/04/23 11:11:15;;;;;;;7.50;4.60;;;;;;;19.26;40.25;101190.22;5122710;27;19915;-75
2021/04/23 11:14:28;;;;;;;6.57;5.32;;;;;;;19.06;42.62;101183.44;5135689;27;20058;-78
2021/04/23 11:17:33;;;;;;;7.30;5.40;;;;;;;18.92;43.14;101175.91;5135851;27;20066;-81
2021/04/23 11:20:38;;;;;;;8.07;5.45;;;;;;;18.86;42.86;101176.59;5136469;27;20046;-80
2021/04/23 11:24:17;;;;;;;7.95;4.47;;;;;;;19.15;42.83;101175.09;5156219;27;20112;-80
2021/04/23 11:27:24;;;;;;;7.85;4.65;;;;;;;19.22;41.08;101180.72;5156800;27;20058;-79
2021/04/23 11:30:49;;;;;;;8.50;4.95;;;;;;;19.28;41.91;101160.97;5156033;27;20045;-79
2021/04/23 11:33:59;;;;;;;7.82;4.82;;;;;;;19.13;42.41;101166.25;5156155;27;20050;-80
2021/04/23 11:37:07;;;;;;;11.25;5.10;;;;;;;19.26;40.34;101165.72;5156485;27;20073;-80
2021/04/23 11:40:25;;;;;;;8.75;4.43;;;;;;;19.21;41.32;101160.78;5143539;27;20042;-78
2021/04/23 11:43:37;;;;;;;7.45;4.90;;;;;;;19.25;40.65;101164.03;5143609;27;20049;-76
2021/04/23 11:46:53;;;;;;;8.90;5.38;;;;;;;19.19;41.69;101161.97;5156736;27;20049;-76
2021/04/23 11:50:27;;;;;;;5.20;4.38;;;;;;;19.12;42.54;101156.38;5155570;27;20046;-76
2021/04/23 11:53:31;;;;;;;11.65;5.40;;;;;;;19.23;42.93;101152.47;5162439;27;20476;-86
2021/04/23 11:56:46;;;;;;;7.10;4.38;;;;;;;19.41;42.71;101151.28;5155959;27;20046;-80
2021/04/23 12:00:20;;;;;;;8.18;5.07;;;;;;;19.37;41.20;101151.81;5139908;27;20066;-79
2021/04/23 12:03:24;;;;;;;8.90;5.47;;;;;;;19.23;41.04;101164.19;5129158;27;20045;-80
2021/04/23 12:06:34;;;;;;;7.95;4.88;;;;;;;19.16;40.77;101159.63;5155421;27;20050;-78
2021/04/23 12:09:41;;;;;;;11.88;5.57;;;;;;;19.15;40.61;101150.59;5155444;27;20070;-83
2021/04/23 12:12:46;;;;;;;7.93;5.40;;;;;;;19.06;42.63;101148.06;5155433;27;20401;-79
2021/04/23 12:15:57;;;;;;;8.73;5.10;;;;;;;19.24;42.44;101148.72;5156235;27;20050;-82
2021/04/23 12:19:02;;;;;;;6.50;4.38;;;;;;;19.32;42.65;101151.44;5150634;27;20049;-79
2021/04/23 12:22:07;;;;;;;6.32;4.75;;;;;;;19.48;41.30;101141.41;5161560;27;20208;-76
2021/04/23 12:25:19;;;;;;;8.73;4.88;;;;;;;19.57;38.70;101144.13;5141504;27;20065;-79
2021/04/23 12:28:35;;;;;;;9.90;4.30;;;;;;;19.59;40.48;101147.50;5128225;27;20066;-77
2021/04/23 12:31:40;;;;;;;6.95;4.32;;;;;;;19.74;40.81;101141.19;5139271;27;20050;-83
2021/04/23 12:34:45;;;;;;;8.02;4.50;;;;;;;19.70;41.32;101134.38;5138928;27;20096;-77
2021/04/23 12:37:50;;;;;;;8.07;4.35;;;;;;;19.75;41.26;101137.41;5143224;27;20065;-83
2021/04/23 12:40:59;;;;;;;9.85;4.50;;;;;;;19.72;41.83;101142.38;5155506;27;20488;-81
2021/04/23 12:44:09;;;;;;;11.35;4.35;;;;;;;19.70;41.75;101126.19;5130890;27;20042;-88
2021/04/23 12:47:13;;;;;;;10.18;4.47;;;;;;;19.74;42.55;101127.56;5145997;27;20050;-80
2021/04/23 12:50:30;;;;;;;7.25;5.18;;;;;;;19.54;43.42;101134.41;5141248;27;20491;-78
2021/04/23 12:53:35;;;;;;;7.72;4.97;;;;;;;19.50;43.32;101126.78;5137246;27;20054;-82
2021/04/23 12:56:41;;;;;;;10.05;5.07;;;;;;;19.48;43.55;101120.66;5128052;27;20050;-80
2021/04/23 12:59:49;;;;;;;7.22;4.90;;;;;;;19.51;43.45;101121.13;5142566;27;20042;-81
2021/04/23 13:02:58;;;;;;;8.40;4.55;;;;;;;19.59;44.51;101120.28;5138491;27;20397;-77
2021/04/23 13:06:03;;;;;;;7.43;3.65;;;;;;;19.69;43.59;101127.22;5142738;27;20055;-79
2021/04/23 13:09:12;;;;;;;10.10;4.75;;;;;;;19.72;42.75;101120.59;5131950;27;20050;-77
2021/04/23 13:12:28;;;;;;;12.77;4.50;;;;;;;19.74;42.81;101116.66;5142483;27;20061;-85
2021/04/23 13:15:36;;;;;;;6.45;4.40;;;;;;;19.79;42.79;101122.44;5130269;27;20041;-83
2021/04/23 13:18:45;;;;;;;10.00;3.97;;;;;;;19.77;43.13;101115.47;5154873;27;20060;-80
2021/04/23 13:21:50;;;;;;;5.82;3.70;;;;;;;19.78;42.57;101112.56;5136307;27;20050;-80
2021/04/23 13:25:15;;;;;;;7.38;4.03;;;;;;;19.81;43.99;101112.22;5122103;28;20046;-80
2021/04/23 13:28:19;;;;;;;11.88;4.32;;;;;;;19.88;42.16;101115.06;5121818;28;20051;-77
2021/04/23 13:31:26;;;;;;;16.13;4.03;;;;;;;19.77;43.44;101108.16;5134575;28;20058;-79
2021/04/23 13:34:30;;;;;;;9.40;3.85;;;;;;;19.69;43.65;101105.44;5142528;27;20042;-83
2021/04/23 13:37:35;;;;;;;5.53;3.92;;;;;;;19.66;43.23;101105.78;5134025;27;20054;-80
2021/04/23 13:40:39;;;;;;;7.18;3.67;;;;;;;19.75;43.89;101098.44;5124666;27;20062;-77
2021/04/23 13:44:07;;;;;;;14.10;3.80;;;;;;;19.85;42.52;101099.91;5140333;27;20038;-77
2021/04/23 13:47:12;;;;;;;10.05;3.72;;;;;;;19.79;43.34;101087.03;5138095;27;20383;-82
2021/04/23 13:50:19;;;;;;;8.75;3.92;;;;;;;19.74;43.55;101108.50;5145010;27;20050;-80
2021/04/23 13:53:37;;;;;;;7.22;3.90;;;;;;;19.80;44.30;101091.44;5158833;27;20053;-85
2021/04/23 13:56:46;;;;;;;9.20;4.70;;;;;;;19.81;44.91;101087.69;5158836;27;20066;-84
2021/04/23 13:59:55;;;;;;;13.38;4.88;;;;;;;19.85;44.89;101077.28;5149644;27;20050;-78
2021/04/23 14:03:01;;;;;;;7.43;4.50;;;;;;;19.84;44.35;101081.88;5146135;27;20047;-84
2021/04/23 14:06:05;;;;;;;7.55;4.60;;;;;;;19.80;44.51;101083.25;5142315;27;20050;-83
2021/04/23 14:09:13;;;;;;;7.90;4.28;;;;;;;19.68;43.64;101065.59;5125016;27;20038;-77
2021/04/23 14:12:24;;;;;;;5.25;3.65;;;;;;;19.73;44.72;101065.91;5140243;27;20070;-78
2021/04/23 14:15:28;;;;;;;9.25;4.20;;;;;;;19.75;44.30;101069.31;5140711;27;20404;-77
2021/04/23 14:18:32;;;;;;;6.22;3.90;;;;;;;19.81;44.15;101063.16;5158503;27;20116;-78
2021/04/23 14:21:39;;;;;;;8.32;4.40;;;;;;;19.84;42.70;101067.41;5156803;27;20050;-81
2021/04/23 14:24:43;;;;;;;8.35;4.45;;;;;;;19.77;43.51;101064.56;5158151;27;20041;-78